Terminal Aerodrome Forecast
Issued by NWS

Home | Current Version | Previous Version | Text Only | Print | Product List | Glossary On
Versions: 1 2 3 4 5 6 7 8 9 10 11 12 13 14
000
FTUS43 KOAX 022324
TAFBFF
TAF
KBFF 022324Z 0300/0324 28015G22KT P6SM BKN100
     FM030200 33007KT P6SM SCT050 BKN120
     FM031200 29006KT P6SM FEW200=

USA.gov is the U.S. government's official web portal to all federal, state and local government web resources and services.